Arcola, PA

5:32 AM EDT on April 21, 2015 (GMT -0400)
Collegeville | | Change Station
CLOSE
Current Station
Personal Weather Station
Location: Collegeville, PA
Elevation: 135 ft
Nearby Weather Stations

Elev 135 ft 40.18 °N, 75.45 °W | Updated 10 minutes ago

Overcast
Overcast
56.5 °F
Feels Like 56.5 °F
N
0.0
Wind Variable Wind from West
Gusts 0.0 mph

Today
High -- | Low -- °F
--% Chance of Precip.
Yesterday
High -- | Low -- °F
Precip. -- in
6:15 AM 7:46 PM
Waxing Crescent, 9% visible
Pressure 29.60 in
Visibility 8.0 miles
Clouds Scattered Clouds 300 ft
Overcast 700 ft
Dew Point 56 °F
Humidity 97%
Rainfall 0.30 in
Snow Depth Not available.
UV 0 out of 12
Pollen .40 out of 12
Air Quality Not available.
Flu Activity Sporadic
METAR KPTW 210854Z AUTO 00000KT 8SM SCT003 OVC007 13/13 A2961 RMK AO2 RAE04B11E22 CIG 006V010 SLP022 P0000 60003 T01330133 50010

More Conditions Fewer Conditions

Pressure 29.60 in
Visibility 8.0 miles
Clouds Scattered Clouds 300 ft
Overcast 700 ft
Dew Point 56 °F
Humidity 97%
Rainfall 0.30 in
Snow Depth Not available.
UV 0 out of 12
Pollen .40 out of 12
Air Quality Not available.
Flu Activity Sporadic
METAR KPTW 210854Z AUTO 00000KT 8SM SCT003 OVC007 13/13 A2961 RMK AO2 RAE04B11E22 CIG 006V010 SLP022 P0000 60003 T01330133 50010

More Conditions Fewer Conditions

Nowcast | as of 5:17 am EDT on April 21, 2015

As we start the morning commute some widely scattered leftover showers will be passing through the area. The downward trend continues and any additional rainfall amounts between 530 am and 730 am should be less than one tenth of an inch.

×

10-Day Weather Forecast

Almanac

Astronomy

Apr. 21, 2015 Rise Set
Actual Time
Civil Twilight
Nautical Twilight
Astronomical Twilight
Moon
Length of Visible Light
Length of Day
Tomorrow will be .
, % of the Moon is Illuminated

Today's Extremes

State Highs State Lows

Community

WunderPhotos

Upload Photos

1,815,330 photos uploaded!

WunderBlogs® & News

Nearby

Air Quality

  Air Quality AQ Index Pollutant
Not available.

Snow Depth

Station Depth Elevation

Earthquake Activity

City Distance Mag. Time & Date
Minimum magnitude displayed is 2.5.

Coastal Water Temperatures

Place Temperature

Stations

Nearby Weather Stations

Station Location Temp. Windchill Dew Point Humidity Wind Precip. Elev Updated Type